sensor_id;sensor_type;location;lat;lon;timestamp;temperature;humidity
61207;DHT22;47070;49.212;8.084;2023-02-28T00:01:40;3.00;94.30
61207;DHT22;47070;49.212;8.084;2023-02-28T00:05:40;3.20;93.80
61207;DHT22;47070;49.212;8.084;2023-02-28T00:09:41;3.30;94.20
61207;DHT22;47070;49.212;8.084;2023-02-28T00:13:42;4.20;96.50
61207;DHT22;47070;49.212;8.084;2023-02-28T00:17:44;4.00;93.40
61207;DHT22;47070;49.212;8.084;2023-02-28T00:21:44;4.50;92.30
61207;DHT22;47070;49.212;8.084;2023-02-28T00:25:45;4.80;94.70
61207;DHT22;47070;49.212;8.084;2023-02-28T00:29:46;4.50;92.20
61207;DHT22;47070;49.212;8.084;2023-02-28T00:33:46;4.30;95.50
61207;DHT22;47070;49.212;8.084;2023-02-28T00:37:47;5.70;92.90
61207;DHT22;47070;49.212;8.084;2023-02-28T00:41:48;5.10;92.10
61207;DHT22;47070;49.212;8.084;2023-02-28T00:45:48;4.50;93.10
61207;DHT22;47070;49.212;8.084;2023-02-28T00:49:48;5.30;92.10
61207;DHT22;47070;49.212;8.084;2023-02-28T00:53:49;5.50;93.30
61207;DHT22;47070;49.212;8.084;2023-02-28T00:57:49;5.40;94.00
61207;DHT22;47070;49.212;8.084;2023-02-28T01:01:50;6.30;97.10
61207;DHT22;47070;49.212;8.084;2023-02-28T01:05:50;5.60;92.90
61207;DHT22;47070;49.212;8.084;2023-02-28T01:09:51;5.30;92.40
61207;DHT22;47070;49.212;8.084;2023-02-28T01:13:51;4.50;92.50
61207;DHT22;47070;49.212;8.084;2023-02-28T01:17:51;5.50;93.30
61207;DHT22;47070;49.212;8.084;2023-02-28T01:21:52;5.30;91.80
61207;DHT22;47070;49.212;8.084;2023-02-28T01:25:52;5.30;93.10
61207;DHT22;47070;49.212;8.084;2023-02-28T01:29:53;5.00;92.40
61207;DHT22;47070;49.212;8.084;2023-02-28T01:33:53;5.20;93.80
61207;DHT22;47070;49.212;8.084;2023-02-28T01:37:54;5.80;91.30
61207;DHT22;47070;49.212;8.084;2023-02-28T01:41:54;5.70;95.30
61207;DHT22;47070;49.212;8.084;2023-02-28T01:45:56;5.30;93.30
61207;DHT22;47070;49.212;8.084;2023-02-28T01:49:56;5.00;93.50
61207;DHT22;47070;49.212;8.084;2023-02-28T01:53:59;6.70;93.90
61207;DHT22;47070;49.212;8.084;2023-02-28T01:58:02;6.50;94.50
61207;DHT22;47070;49.212;8.084;2023-02-28T02:02:04;5.80;92.10
61207;DHT22;47070;49.212;8.084;2023-02-28T02:06:04;5.00;94.00
61207;DHT22;47070;49.212;8.084;2023-02-28T02:14:19;5.30;92.20
61207;DHT22;47070;49.212;8.084;2023-02-28T02:22:35;4.20;93.10
61207;DHT22;47070;49.212;8.084;2023-02-28T02:26:52;3.80;94.10
61207;DHT22;47070;49.212;8.084;2023-02-28T02:35:15;3.50;94.60
61207;DHT22;47070;49.212;8.084;2023-02-28T02:39:27;3.70;97.10
61207;DHT22;47070;49.212;8.084;2023-02-28T02:43:32;3.10;94.60
61207;DHT22;47070;49.212;8.084;2023-02-28T02:47:34;3.30;96.70
61207;DHT22;47070;49.212;8.084;2023-02-28T02:51:36;3.20;95.60
61207;DHT22;47070;49.212;8.084;2023-02-28T02:55:39;3.10;95.30
61207;DHT22;47070;49.212;8.084;2023-02-28T02:59:40;2.70;95.70
61207;DHT22;47070;49.212;8.084;2023-02-28T03:03:41;2.80;96.40
61207;DHT22;47070;49.212;8.084;2023-02-28T03:07:42;3.10;96.40
61207;DHT22;47070;49.212;8.084;2023-02-28T03:11:43;2.80;96.00
61207;DHT22;47070;49.212;8.084;2023-02-28T03:24:13;2.70;96.40
61207;DHT22;47070;49.212;8.084;2023-02-28T03:32:28;3.10;95.70
61207;DHT22;47070;49.212;8.084;2023-02-28T03:36:31;3.40;95.80
61207;DHT22;47070;49.212;8.084;2023-02-28T03:40:33;3.00;96.00
61207;DHT22;47070;49.212;8.084;2023-02-28T03:44:41;2.70;95.90
61207;DHT22;47070;49.212;8.084;2023-02-28T03:48:43;2.80;96.60
61207;DHT22;47070;49.212;8.084;2023-02-28T03:53:08;2.70;96.30
61207;DHT22;47070;49.212;8.084;2023-02-28T03:57:08;2.90;96.30
61207;DHT22;47070;49.212;8.084;2023-02-28T04:01:13;2.80;97.30
61207;DHT22;47070;49.212;8.084;2023-02-28T04:05:15;2.40;96.80
61207;DHT22;47070;49.212;8.084;2023-02-28T04:09:16;2.60;96.80
61207;DHT22;47070;49.212;8.084;2023-02-28T04:13:16;2.30;96.90
61207;DHT22;47070;49.212;8.084;2023-02-28T04:17:17;3.00;96.20
61207;DHT22;47070;49.212;8.084;2023-02-28T04:21:17;2.60;96.60
61207;DHT22;47070;49.212;8.084;2023-02-28T04:25:20;2.60;96.80
61207;DHT22;47070;49.212;8.084;2023-02-28T04:33:21;2.50;97.10
61207;DHT22;47070;49.212;8.084;2023-02-28T04:37:22;2.20;97.10
61207;DHT22;47070;49.212;8.084;2023-02-28T04:41:27;2.80;97.50
61207;DHT22;47070;49.212;8.084;2023-02-28T04:45:28;2.90;96.30
61207;DHT22;47070;49.212;8.084;2023-02-28T04:49:32;2.80;99.10
61207;DHT22;47070;49.212;8.084;2023-02-28T04:53:33;3.20;97.70
61207;DHT22;47070;49.212;8.084;2023-02-28T04:57:34;3.20;96.10
61207;DHT22;47070;49.212;8.084;2023-02-28T05:01:34;2.90;96.20
61207;DHT22;47070;49.212;8.084;2023-02-28T05:05:36;3.00;97.70
61207;DHT22;47070;49.212;8.084;2023-02-28T05:09:36;2.70;97.40
61207;DHT22;47070;49.212;8.084;2023-02-28T05:13:37;2.80;97.40
61207;DHT22;47070;49.212;8.084;2023-02-28T05:17:37;3.00;97.90
61207;DHT22;47070;49.212;8.084;2023-02-28T05:21:39;3.40;96.50
61207;DHT22;47070;49.212;8.084;2023-02-28T05:25:39;3.20;96.70
61207;DHT22;47070;49.212;8.084;2023-02-28T05:29:40;4.30;96.20
61207;DHT22;47070;49.212;8.084;2023-02-28T05:33:45;4.80;99.90
61207;DHT22;47070;49.212;8.084;2023-02-28T05:37:46;4.40;94.50
61207;DHT22;47070;49.212;8.084;2023-02-28T05:41:46;4.20;96.30
61207;DHT22;47070;49.212;8.084;2023-02-28T05:45:47;3.80;95.80
61207;DHT22;47070;49.212;8.084;2023-02-28T05:49:47;3.60;96.10
61207;DHT22;47070;49.212;8.084;2023-02-28T05:53:47;3.50;95.90
61207;DHT22;47070;49.212;8.084;2023-02-28T05:57:49;3.50;96.30
61207;DHT22;47070;49.212;8.084;2023-02-28T06:01:49;4.20;95.00
61207;DHT22;47070;49.212;8.084;2023-02-28T06:05:50;4.60;95.10
61207;DHT22;47070;49.212;8.084;2023-02-28T06:09:50;4.50;96.10
61207;DHT22;47070;49.212;8.084;2023-02-28T06:13:52;4.90;98.00
61207;DHT22;47070;49.212;8.084;2023-02-28T06:17:53;5.00;97.10
61207;DHT22;47070;49.212;8.084;2023-02-28T06:21:53;6.70;95.20
61207;DHT22;47070;49.212;8.084;2023-02-28T06:25:54;7.20;96.00
61207;DHT22;47070;49.212;8.084;2023-02-28T06:29:58;5.90;92.30
61207;DHT22;47070;49.212;8.084;2023-02-28T06:33:58;5.60;98.50
61207;DHT22;47070;49.212;8.084;2023-02-28T06:37:59;5.00;93.80
61207;DHT22;47070;49.212;8.084;2023-02-28T06:41:59;5.80;94.60
61207;DHT22;47070;49.212;8.084;2023-02-28T06:46:00;4.90;94.20
61207;DHT22;47070;49.212;8.084;2023-02-28T06:50:01;5.00;94.20
61207;DHT22;47070;49.212;8.084;2023-02-28T06:54:01;5.10;95.30
61207;DHT22;47070;49.212;8.084;2023-02-28T06:58:02;5.60;94.10
61207;DHT22;47070;49.212;8.084;2023-02-28T07:02:03;5.70;95.30
61207;DHT22;47070;49.212;8.084;2023-02-28T07:06:04;5.10;94.10
61207;DHT22;47070;49.212;8.084;2023-02-28T07:10:05;4.30;94.10
61207;DHT22;47070;49.212;8.084;2023-02-28T07:14:05;5.10;96.70
61207;DHT22;47070;49.212;8.084;2023-02-28T07:18:06;5.90;93.70
61207;DHT22;47070;49.212;8.084;2023-02-28T07:22:07;5.70;94.40
61207;DHT22;47070;49.212;8.084;2023-02-28T07:26:08;4.60;94.00
61207;DHT22;47070;49.212;8.084;2023-02-28T07:30:11;5.20;95.00
61207;DHT22;47070;49.212;8.084;2023-02-28T07:34:13;5.30;95.60
61207;DHT22;47070;49.212;8.084;2023-02-28T07:38:13;5.70;94.10
61207;DHT22;47070;49.212;8.084;2023-02-28T07:42:14;5.90;95.90
61207;DHT22;47070;49.212;8.084;2023-02-28T07:46:15;6.90;95.80
61207;DHT22;47070;49.212;8.084;2023-02-28T07:50:15;7.20;93.20
61207;DHT22;47070;49.212;8.084;2023-02-28T07:54:16;6.90;92.20
61207;DHT22;47070;49.212;8.084;2023-02-28T07:58:16;7.30;96.50
61207;DHT22;47070;49.212;8.084;2023-02-28T08:02:17;6.80;95.70
61207;DHT22;47070;49.212;8.084;2023-02-28T08:06:19;7.40;91.10
61207;DHT22;47070;49.212;8.084;2023-02-28T08:10:20;7.30;97.90
61207;DHT22;47070;49.212;8.084;2023-02-28T08:14:21;8.40;93.70
61207;DHT22;47070;49.212;8.084;2023-02-28T08:18:21;6.30;91.50
61207;DHT22;47070;49.212;8.084;2023-02-28T08:22:22;8.10;95.00
61207;DHT22;47070;49.212;8.084;2023-02-28T08:26:22;6.50;93.10
61207;DHT22;47070;49.212;8.084;2023-02-28T08:30:23;6.90;96.80
61207;DHT22;47070;49.212;8.084;2023-02-28T08:34:23;6.00;92.60
61207;DHT22;47070;49.212;8.084;2023-02-28T08:38:24;6.40;93.30
61207;DHT22;47070;49.212;8.084;2023-02-28T08:42:24;6.50;93.90
61207;DHT22;47070;49.212;8.084;2023-02-28T08:46:25;6.50;92.20
61207;DHT22;47070;49.212;8.084;2023-02-28T08:50:25;6.10;94.10
61207;DHT22;47070;49.212;8.084;2023-02-28T08:54:25;5.80;92.70
61207;DHT22;47070;49.212;8.084;2023-02-28T08:58:26;7.30;92.60
61207;DHT22;47070;49.212;8.084;2023-02-28T09:02:26;6.30;95.10
61207;DHT22;47070;49.212;8.084;2023-02-28T09:06:27;7.20;93.90
61207;DHT22;47070;49.212;8.084;2023-02-28T09:10:27;7.30;93.20
61207;DHT22;47070;49.212;8.084;2023-02-28T09:14:28;6.60;94.10
61207;DHT22;47070;49.212;8.084;2023-02-28T09:18:29;6.50;97.10
61207;DHT22;47070;49.212;8.084;2023-02-28T09:22:29;6.60;92.80
61207;DHT22;47070;49.212;8.084;2023-02-28T09:26:30;5.90;94.80
61207;DHT22;47070;49.212;8.084;2023-02-28T09:30:30;5.30;94.20
61207;DHT22;47070;49.212;8.084;2023-02-28T09:34:31;5.30;93.80
61207;DHT22;47070;49.212;8.084;2023-02-28T09:38:31;5.40;94.80
61207;DHT22;47070;49.212;8.084;2023-02-28T09:42:32;5.70;95.00
61207;DHT22;47070;49.212;8.084;2023-02-28T09:46:43;6.50;95.10
61207;DHT22;47070;49.212;8.084;2023-02-28T09:50:46;6.40;93.30
61207;DHT22;47070;49.212;8.084;2023-02-28T09:54:47;6.40;92.70
61207;DHT22;47070;49.212;8.084;2023-02-28T09:59:01;7.20;92.30
61207;DHT22;47070;49.212;8.084;2023-02-28T10:03:36;7.70;97.90
61207;DHT22;47070;49.212;8.084;2023-02-28T10:11:47;10.00;92.40
61207;DHT22;47070;49.212;8.084;2023-02-28T10:15:50;8.60;90.70
61207;DHT22;47070;49.212;8.084;2023-02-28T10:28:36;8.00;93.80
61207;DHT22;47070;49.212;8.084;2023-02-28T10:32:37;7.10;91.70
61207;DHT22;47070;49.212;8.084;2023-02-28T10:36:39;7.70;92.40
61207;DHT22;47070;49.212;8.084;2023-02-28T10:40:39;9.90;89.00
61207;DHT22;47070;49.212;8.084;2023-02-28T10:44:40;8.30;88.20
61207;DHT22;47070;49.212;8.084;2023-02-28T10:52:42;8.70;90.20
61207;DHT22;47070;49.212;8.084;2023-02-28T10:56:43;8.60;88.10
61207;DHT22;47070;49.212;8.084;2023-02-28T11:00:43;10.90;91.90
61207;DHT22;47070;49.212;8.084;2023-02-28T11:04:44;9.60;85.60
61207;DHT22;47070;49.212;8.084;2023-02-28T11:09:15;10.10;87.90
61207;DHT22;47070;49.212;8.084;2023-02-28T11:13:05;9.70;86.50
61207;DHT22;47070;49.212;8.084;2023-02-28T11:17:19;9.70;90.70
61207;DHT22;47070;49.212;8.084;2023-02-28T11:21:22;11.40;90.80
61207;DHT22;47070;49.212;8.084;2023-02-28T11:25:26;10.90;85.60
61207;DHT22;47070;49.212;8.084;2023-02-28T11:29:29;10.70;91.20
61207;DHT22;47070;49.212;8.084;2023-02-28T11:33:31;10.60;84.50
61207;DHT22;47070;49.212;8.084;2023-02-28T11:37:32;11.60;82.70
61207;DHT22;47070;49.212;8.084;2023-02-28T11:46:07;10.70;84.90
61207;DHT22;47070;49.212;8.084;2023-02-28T11:50:18;10.80;82.30
61207;DHT22;47070;49.212;8.084;2023-02-28T11:58:53;11.10;85.40
61207;DHT22;47070;49.212;8.084;2023-02-28T12:11:12;11.30;84.60
61207;DHT22;47070;49.212;8.084;2023-02-28T12:24:00;13.60;83.20
61207;DHT22;47070;49.212;8.084;2023-02-28T12:28:04;12.60;83.60
61207;DHT22;47070;49.212;8.084;2023-02-28T12:32:13;12.50;82.40
61207;DHT22;47070;49.212;8.084;2023-02-28T12:36:16;12.10;76.20
61207;DHT22;47070;49.212;8.084;2023-02-28T12:40:20;13.80;81.50
61207;DHT22;47070;49.212;8.084;2023-02-28T12:48:42;12.80;81.40
61207;DHT22;47070;49.212;8.084;2023-02-28T13:01:03;10.50;87.50
61207;DHT22;47070;49.212;8.084;2023-02-28T13:09:16;11.80;88.40
61207;DHT22;47070;49.212;8.084;2023-02-28T13:13:17;11.80;86.90
61207;DHT22;47070;49.212;8.084;2023-02-28T13:17:19;11.30;86.00
61207;DHT22;47070;49.212;8.084;2023-02-28T13:21:23;10.80;80.20
61207;DHT22;47070;49.212;8.084;2023-02-28T13:29:34;9.80;84.20
61207;DHT22;47070;49.212;8.084;2023-02-28T13:33:35;10.70;79.70
61207;DHT22;47070;49.212;8.084;2023-02-28T13:37:42;11.50;83.80
61207;DHT22;47070;49.212;8.084;2023-02-28T13:41:43;12.40;83.50
61207;DHT22;47070;49.212;8.084;2023-02-28T13:58:54;12.60;79.60
61207;DHT22;47070;49.212;8.084;2023-02-28T14:07:02;13.60;77.70
61207;DHT22;47070;49.212;8.084;2023-02-28T14:11:04;14.00;73.40
61207;DHT22;47070;49.212;8.084;2023-02-28T14:19:27;14.10;72.40
61207;DHT22;47070;49.212;8.084;2023-02-28T14:31:53;14.50;75.00
61207;DHT22;47070;49.212;8.084;2023-02-28T14:36:02;14.40;77.60
61207;DHT22;47070;49.212;8.084;2023-02-28T14:40:04;13.40;82.60
61207;DHT22;47070;49.212;8.084;2023-02-28T14:44:21;13.10;87.10
61207;DHT22;47070;49.212;8.084;2023-02-28T14:48:22;12.50;81.60
61207;DHT22;47070;49.212;8.084;2023-02-28T14:52:24;11.60;86.30
61207;DHT22;47070;49.212;8.084;2023-02-28T14:56:28;11.20;78.60
61207;DHT22;47070;49.212;8.084;2023-02-28T15:00:31;10.00;83.30
61207;DHT22;47070;49.212;8.084;2023-02-28T15:04:32;10.40;87.80
61207;DHT22;47070;49.212;8.084;2023-02-28T15:08:33;10.40;80.30
61207;DHT22;47070;49.212;8.084;2023-02-28T15:12:36;10.40;87.30
61207;DHT22;47070;49.212;8.084;2023-02-28T15:16:37;11.80;81.20
61207;DHT22;47070;49.212;8.084;2023-02-28T15:20:40;11.20;85.50
61207;DHT22;47070;49.212;8.084;2023-02-28T15:24:41;11.50;80.70
61207;DHT22;47070;49.212;8.084;2023-02-28T15:28:43;11.40;82.20
61207;DHT22;47070;49.212;8.084;2023-02-28T15:32:43;10.70;83.00
61207;DHT22;47070;49.212;8.084;2023-02-28T15:36:44;12.10;77.90
61207;DHT22;47070;49.212;8.084;2023-02-28T15:40:45;11.90;84.20
61207;DHT22;47070;49.212;8.084;2023-02-28T15:44:53;11.50;82.40
61207;DHT22;47070;49.212;8.084;2023-02-28T15:48:54;11.20;79.50
61207;DHT22;47070;49.212;8.084;2023-02-28T15:52:55;10.30;80.60
61207;DHT22;47070;49.212;8.084;2023-02-28T15:56:57;8.70;81.90
61207;DHT22;47070;49.212;8.084;2023-02-28T16:01:06;9.20;83.50
61207;DHT22;47070;49.212;8.084;2023-02-28T16:09:11;10.90;89.40
61207;DHT22;47070;49.212;8.084;2023-02-28T16:13:12;11.10;79.30
61207;DHT22;47070;49.212;8.084;2023-02-28T16:17:18;11.20;90.50
61207;DHT22;47070;49.212;8.084;2023-02-28T16:21:20;11.10;82.60
61207;DHT22;47070;49.212;8.084;2023-02-28T16:25:26;11.60;92.20
61207;DHT22;47070;49.212;8.084;2023-02-28T16:29:30;10.50;81.20
61207;DHT22;47070;49.212;8.084;2023-02-28T16:33:31;11.20;85.00
61207;DHT22;47070;49.212;8.084;2023-02-28T16:37:32;10.60;88.50
61207;DHT22;47070;49.212;8.084;2023-02-28T16:41:32;10.70;85.00
61207;DHT22;47070;49.212;8.084;2023-02-28T16:45:34;11.30;86.60
61207;DHT22;47070;49.212;8.084;2023-02-28T16:49:34;9.80;87.90
61207;DHT22;47070;49.212;8.084;2023-02-28T16:53:35;10.60;88.00
61207;DHT22;47070;49.212;8.084;2023-02-28T16:57:35;10.10;84.30
61207;DHT22;47070;49.212;8.084;2023-02-28T17:01:35;10.10;84.70
61207;DHT22;47070;49.212;8.084;2023-02-28T17:05:37;9.20;83.50
61207;DHT22;47070;49.212;8.084;2023-02-28T17:09:38;9.60;89.80
61207;DHT22;47070;49.212;8.084;2023-02-28T17:13:39;9.30;84.30
61207;DHT22;47070;49.212;8.084;2023-02-28T17:17:39;8.70;89.90
61207;DHT22;47070;49.212;8.084;2023-02-28T17:21:41;8.40;86.70
61207;DHT22;47070;49.212;8.084;2023-02-28T17:25:44;7.70;87.20
61207;DHT22;47070;49.212;8.084;2023-02-28T17:29:53;7.70;86.90
61207;DHT22;47070;49.212;8.084;2023-02-28T17:33:53;7.40;88.60
61207;DHT22;47070;49.212;8.084;2023-02-28T17:37:57;7.10;91.00
61207;DHT22;47070;49.212;8.084;2023-02-28T17:41:57;6.60;90.30
61207;DHT22;47070;49.212;8.084;2023-02-28T17:45:58;6.50;90.50
61207;DHT22;47070;49.212;8.084;2023-02-28T17:49:58;6.60;90.00
61207;DHT22;47070;49.212;8.084;2023-02-28T17:53:59;6.40;91.60
61207;DHT22;47070;49.212;8.084;2023-02-28T17:58:00;6.10;90.50
61207;DHT22;47070;49.212;8.084;2023-02-28T18:02:00;5.90;91.10
61207;DHT22;47070;49.212;8.084;2023-02-28T18:06:01;5.70;91.20
61207;DHT22;47070;49.212;8.084;2023-02-28T18:10:02;5.40;91.40
61207;DHT22;47070;49.212;8.084;2023-02-28T18:14:03;5.30;91.80
61207;DHT22;47070;49.212;8.084;2023-02-28T18:18:03;5.10;92.30
61207;DHT22;47070;49.212;8.084;2023-02-28T18:22:05;4.90;92.20
61207;DHT22;47070;49.212;8.084;2023-02-28T18:26:07;4.80;92.40
61207;DHT22;47070;49.212;8.084;2023-02-28T18:30:08;4.80;92.70
61207;DHT22;47070;49.212;8.084;2023-02-28T18:34:09;4.70;92.70
61207;DHT22;47070;49.212;8.084;2023-02-28T18:38:10;4.60;92.90
61207;DHT22;47070;49.212;8.084;2023-02-28T18:42:12;4.70;92.90
61207;DHT22;47070;49.212;8.084;2023-02-28T18:46:13;4.70;92.80
61207;DHT22;47070;49.212;8.084;2023-02-28T18:50:14;4.80;93.10
61207;DHT22;47070;49.212;8.084;2023-02-28T18:54:15;4.70;93.00
61207;DHT22;47070;49.212;8.084;2023-02-28T18:58:15;4.80;92.60
61207;DHT22;47070;49.212;8.084;2023-02-28T19:02:16;4.80;92.80
61207;DHT22;47070;49.212;8.084;2023-02-28T19:06:17;4.90;92.40
61207;DHT22;47070;49.212;8.084;2023-02-28T19:10:17;4.80;92.60
61207;DHT22;47070;49.212;8.084;2023-02-28T19:14:18;4.70;92.50
61207;DHT22;47070;49.212;8.084;2023-02-28T19:18:20;4.60;92.80
61207;DHT22;47070;49.212;8.084;2023-02-28T19:22:20;4.40;92.90
61207;DHT22;47070;49.212;8.084;2023-02-28T19:26:22;4.60;93.00
61207;DHT22;47070;49.212;8.084;2023-02-28T19:30:22;4.90;92.80
61207;DHT22;47070;49.212;8.084;2023-02-28T19:34:23;4.70;92.70
61207;DHT22;47070;49.212;8.084;2023-02-28T19:38:23;4.80;92.70
61207;DHT22;47070;49.212;8.084;2023-02-28T19:42:23;4.80;92.60
61207;DHT22;47070;49.212;8.084;2023-02-28T19:46:24;4.70;92.50
61207;DHT22;47070;49.212;8.084;2023-02-28T19:50:25;4.60;92.80
61207;DHT22;47070;49.212;8.084;2023-02-28T19:54:26;4.70;92.90
61207;DHT22;47070;49.212;8.084;2023-02-28T19:58:26;4.70;92.80
61207;DHT22;47070;49.212;8.084;2023-02-28T20:02:27;4.40;93.20
61207;DHT22;47070;49.212;8.084;2023-02-28T20:06:27;4.40;93.10
61207;DHT22;47070;49.212;8.084;2023-02-28T20:10:31;4.50;93.00
61207;DHT22;47070;49.212;8.084;2023-02-28T20:14:31;4.60;93.00
61207;DHT22;47070;49.212;8.084;2023-02-28T20:18:32;4.60;93.00
61207;DHT22;47070;49.212;8.084;2023-02-28T20:22:33;4.60;93.10
61207;DHT22;47070;49.212;8.084;2023-02-28T20:26:33;4.50;93.10
61207;DHT22;47070;49.212;8.084;2023-02-28T20:30:34;4.70;93.10
61207;DHT22;47070;49.212;8.084;2023-02-28T20:34:34;4.60;93.10
61207;DHT22;47070;49.212;8.084;2023-02-28T20:38:35;4.70;94.40
61207;DHT22;47070;49.212;8.084;2023-02-28T20:42:36;4.60;93.50
61207;DHT22;47070;49.212;8.084;2023-02-28T20:46:36;4.40;93.10
61207;DHT22;47070;49.212;8.084;2023-02-28T20:50:37;4.40;93.10
61207;DHT22;47070;49.212;8.084;2023-02-28T20:54:37;4.50;93.10
61207;DHT22;47070;49.212;8.084;2023-02-28T20:58:38;5.00;93.10
61207;DHT22;47070;49.212;8.084;2023-02-28T21:02:38;4.90;92.50
61207;DHT22;47070;49.212;8.084;2023-02-28T21:06:40;4.60;92.40
61207;DHT22;47070;49.212;8.084;2023-02-28T21:10:42;4.70;92.60
61207;DHT22;47070;49.212;8.084;2023-02-28T21:14:43;4.60;92.90
61207;DHT22;47070;49.212;8.084;2023-02-28T21:18:43;4.60;92.70
61207;DHT22;47070;49.212;8.084;2023-02-28T21:22:44;4.80;92.60
61207;DHT22;47070;49.212;8.084;2023-02-28T21:26:44;4.80;92.30
61207;DHT22;47070;49.212;8.084;2023-02-28T21:30:45;4.70;92.40
61207;DHT22;47070;49.212;8.084;2023-02-28T21:34:45;4.70;93.30
61207;DHT22;47070;49.212;8.084;2023-02-28T21:38:47;4.90;93.60
61207;DHT22;47070;49.212;8.084;2023-02-28T21:42:47;4.70;92.30
61207;DHT22;47070;49.212;8.084;2023-02-28T21:46:49;4.50;92.70
61207;DHT22;47070;49.212;8.084;2023-02-28T21:50:56;4.60;92.80
61207;DHT22;47070;49.212;8.084;2023-02-28T21:54:57;4.50;92.50
61207;DHT22;47070;49.212;8.084;2023-02-28T21:58:58;4.40;92.70
61207;DHT22;47070;49.212;8.084;2023-02-28T22:03:01;4.20;92.90
61207;DHT22;47070;49.212;8.084;2023-02-28T22:07:02;4.20;93.20
61207;DHT22;47070;49.212;8.084;2023-02-28T22:11:03;4.30;93.10
61207;DHT22;47070;49.212;8.084;2023-02-28T22:15:05;4.20;93.20
61207;DHT22;47070;49.212;8.084;2023-02-28T22:19:05;4.60;93.30
61207;DHT22;47070;49.212;8.084;2023-02-28T22:23:07;4.70;93.60
61207;DHT22;47070;49.212;8.084;2023-02-28T22:27:07;4.70;93.30
61207;DHT22;47070;49.212;8.084;2023-02-28T22:31:15;4.40;93.10
61207;DHT22;47070;49.212;8.084;2023-02-28T22:35:16;4.60;94.00
61207;DHT22;47070;49.212;8.084;2023-02-28T22:39:18;4.70;92.60
61207;DHT22;47070;49.212;8.084;2023-02-28T22:43:20;4.60;93.00
61207;DHT22;47070;49.212;8.084;2023-02-28T22:47:20;4.40;93.20
61207;DHT22;47070;49.212;8.084;2023-02-28T22:51:24;4.20;93.50
61207;DHT22;47070;49.212;8.084;2023-02-28T22:55:25;4.20;93.20
61207;DHT22;47070;49.212;8.084;2023-02-28T22:59:25;4.20;93.20
61207;DHT22;47070;49.212;8.084;2023-02-28T23:03:26;4.10;93.60
61207;DHT22;47070;49.212;8.084;2023-02-28T23:07:26;4.80;92.60
61207;DHT22;47070;49.212;8.084;2023-02-28T23:11:28;5.20;93.20
61207;DHT22;47070;49.212;8.084;2023-02-28T23:15:29;4.80;93.20
61207;DHT22;47070;49.212;8.084;2023-02-28T23:19:29;4.50;93.40
61207;DHT22;47070;49.212;8.084;2023-02-28T23:23:30;4.60;92.50
61207;DHT22;47070;49.212;8.084;2023-02-28T23:27:31;5.10;93.50
61207;DHT22;47070;49.212;8.084;2023-02-28T23:31:31;4.50;92.70
61207;DHT22;47070;49.212;8.084;2023-02-28T23:35:32;4.20;93.20
61207;DHT22;47070;49.212;8.084;2023-02-28T23:39:34;4.40;93.70
61207;DHT22;47070;49.212;8.084;2023-02-28T23:43:34;4.60;93.50
61207;DHT22;47070;49.212;8.084;2023-02-28T23:47:35;4.50;94.90
61207;DHT22;47070;49.212;8.084;2023-02-28T23:51:35;4.70;95.00
61207;DHT22;47070;49.212;8.084;2023-02-28T23:55:36;4.80;93.10
61207;DHT22;47070;49.212;8.084;2023-02-28T23:59:36;4.40;93.60
